createdAt,value
2019-06-26T00:00:50.894Z,97156.32
2019-06-26T00:03:21.962Z,97160.89
2019-06-26T00:05:53.142Z,97159.56
2019-06-26T00:08:24.254Z,97157.97
2019-06-26T00:10:55.300Z,97159.84
2019-06-26T00:13:27.121Z,97157.97
2019-06-26T00:15:58.171Z,97159.58
2019-06-26T00:18:29.269Z,97159.03
2019-06-26T00:21:00.284Z,97164.41
2019-06-26T00:23:32.207Z,97160.39
2019-06-26T00:26:03.304Z,97163.33
2019-06-26T00:28:34.305Z,97162.27
2019-06-26T00:31:05.390Z,97160.41
2019-06-26T00:33:36.442Z,97155.84
2019-06-26T00:36:07.573Z,97162.30
2019-06-26T00:38:40.183Z,97161.76
2019-06-26T00:41:11.409Z,97162.03
2019-06-26T00:43:42.963Z,97160.14
2019-06-26T00:46:14.101Z,97171.42
2019-06-26T00:48:45.160Z,97169.02
2019-06-26T00:51:16.184Z,97163.63
2019-06-26T00:53:47.175Z,97166.03
2019-06-26T00:56:18.192Z,97172.48
2019-06-26T00:58:49.277Z,97168.20
2019-06-26T01:01:20.411Z,97173.84
2019-06-26T01:03:54.620Z,97175.20
2019-06-26T01:06:44.145Z,97169.56
2019-06-26T01:09:16.292Z,97172.25
2019-06-26T01:11:47.465Z,97177.64
2019-06-26T01:14:18.468Z,97173.33
2019-06-26T01:16:49.839Z,97176.31
2019-06-26T01:19:20.891Z,97177.36
2019-06-26T01:21:53.098Z,97178.44
2019-06-26T01:24:24.634Z,97181.41
2019-06-26T01:26:55.991Z,97184.89
2019-06-26T01:29:26.992Z,97176.28
2019-06-26T01:31:58.018Z,97181.12
2019-06-26T01:34:29.034Z,97177.08
2019-06-26T01:37:00.068Z,97183.80
2019-06-26T01:39:32.301Z,97187.03
2019-06-26T01:42:03.310Z,97178.70
2019-06-26T01:44:34.398Z,97180.85
2019-06-26T01:47:05.565Z,97180.34
2019-06-26T01:49:37.735Z,97181.39
2019-06-26T01:52:08.747Z,97185.42
2019-06-26T01:54:39.761Z,97189.72
2019-06-26T01:57:10.800Z,97189.47
2019-06-26T01:59:41.883Z,97188.89
2019-06-26T02:02:13.015Z,97191.59
2019-06-26T02:04:44.014Z,97191.05
2019-06-26T02:07:15.023Z,97190.23
2019-06-26T02:09:46.091Z,97187.83
2019-06-26T02:12:17.184Z,97187.02
2019-06-26T02:14:48.334Z,97186.49
2019-06-26T02:17:19.347Z,97185.41
2019-06-26T02:19:50.363Z,97185.69
2019-06-26T02:22:21.448Z,97181.92
2019-06-26T02:24:53.170Z,97181.41
2019-06-26T02:27:24.449Z,97187.58
2019-06-26T02:30:15.048Z,97181.14
2019-06-26T02:32:46.156Z,97177.90
2019-06-26T02:35:17.425Z,97182.20
2019-06-26T02:37:48.506Z,97184.62
2019-06-26T02:40:19.876Z,97185.70
2019-06-26T02:42:50.894Z,97185.42
2019-06-26T02:45:22.161Z,97189.19
2019-06-26T02:47:53.158Z,97189.45
2019-06-26T02:50:24.152Z,97189.44
2019-06-26T02:52:55.170Z,97186.77
2019-06-26T02:55:26.163Z,97187.30
2019-06-26T02:57:57.255Z,97187.56
2019-06-26T03:00:28.333Z,97185.70
2019-06-26T03:02:59.378Z,97184.36
2019-06-26T03:05:30.434Z,97184.08
2019-06-26T03:08:01.446Z,97190.78
2019-06-26T03:10:32.538Z,97188.37
2019-06-26T03:13:03.541Z,97185.69
2019-06-26T03:15:35.328Z,97188.10
2019-06-26T03:18:06.445Z,97190.00
2019-06-26T03:20:43.156Z,97194.28
2019-06-26T03:23:14.169Z,97190.52
2019-06-26T03:25:45.163Z,97191.31
2019-06-26T03:28:16.264Z,97192.12
2019-06-26T03:30:47.614Z,97198.83
2019-06-26T03:33:18.762Z,97202.83
2019-06-26T03:35:49.832Z,97199.09
2019-06-26T03:38:20.844Z,97200.96
2019-06-26T03:40:53.154Z,97204.46
2019-06-26T03:43:24.286Z,97196.68
2019-06-26T03:45:55.335Z,97200.96
2019-06-26T03:48:26.388Z,97197.73
2019-06-26T03:50:57.459Z,97205.51
2019-06-26T03:53:28.497Z,97204.98
2019-06-26T03:55:59.500Z,97206.59
2019-06-26T03:58:30.497Z,97202.02
2019-06-26T04:01:01.879Z,97207.38
2019-06-26T04:03:32.880Z,97210.58
2019-06-26T04:06:04.013Z,97211.39
2019-06-26T04:08:35.037Z,97219.41
2019-06-26T04:11:06.201Z,97221.00
2019-06-26T04:13:37.794Z,97214.89
2019-06-26T04:16:08.791Z,97220.55
2019-06-26T04:18:40.091Z,97219.17
2019-06-26T04:21:11.330Z,97222.64
2019-06-26T04:23:42.349Z,97229.11
2019-06-26T04:26:13.458Z,97224.83
2019-06-26T04:28:44.506Z,97236.63
2019-06-26T04:31:15.596Z,97239.58
2019-06-26T04:33:46.619Z,97240.91
2019-06-26T04:36:17.869Z,97237.94
2019-06-26T04:38:48.886Z,97234.48
2019-06-26T04:41:20.294Z,97235.56
2019-06-26T04:43:51.302Z,97235.56
2019-06-26T04:46:22.665Z,97235.82
2019-06-26T04:48:53.674Z,97244.68
2019-06-26T04:51:24.672Z,97244.42
2019-06-26T04:53:55.848Z,97247.10
2019-06-26T04:56:27.097Z,97250.34
2019-06-26T04:58:59.171Z,97250.34
2019-06-26T05:01:30.181Z,97252.23
2019-06-26T05:04:01.261Z,97250.33
2019-06-26T05:06:32.285Z,97246.05
2019-06-26T05:09:03.424Z,97243.36
2019-06-26T05:11:36.156Z,97246.86
2019-06-26T05:14:08.379Z,97251.44
2019-06-26T05:16:39.474Z,97254.11
2019-06-26T05:19:10.487Z,97257.32
2019-06-26T05:21:41.556Z,97259.21
2019-06-26T05:24:12.616Z,97260.02
2019-06-26T05:26:43.618Z,97258.94
2019-06-26T05:31:44.846Z,97258.14
2019-06-26T05:34:16.977Z,97266.22
2019-06-26T05:36:48.057Z,97264.09
2019-06-26T05:39:19.171Z,97263.52
2019-06-26T05:41:50.499Z,97274.55
2019-06-26T05:44:21.522Z,97275.09
2019-06-26T05:46:53.619Z,97275.08
2019-06-26T05:49:24.763Z,97273.72
2019-06-26T05:51:57.618Z,97270.23
2019-06-26T05:54:28.632Z,97273.44
2019-06-26T05:57:01.137Z,97278.81
2019-06-26T05:59:32.506Z,97278.53
2019-06-26T06:02:03.600Z,97278.00
2019-06-26T06:04:34.591Z,97284.16
2019-06-26T06:07:05.624Z,97281.70
2019-06-26T06:09:36.999Z,97285.22
2019-06-26T06:12:09.490Z,97285.75
2019-06-26T06:14:40.600Z,97289.23
2019-06-26T06:17:11.738Z,97285.43
2019-06-26T06:19:43.286Z,97285.95
2019-06-26T06:22:14.346Z,97290.23
2019-06-26T06:24:45.355Z,97290.67
2019-06-26T06:27:16.455Z,97293.06
2019-06-26T06:29:47.562Z,97287.66
2019-06-26T06:32:18.750Z,97293.33
2019-06-26T06:34:50.247Z,97292.51
2019-06-26T06:37:21.254Z,97292.79
2019-06-26T06:39:52.441Z,97295.70
2019-06-26T06:42:23.502Z,97294.33
2019-06-26T06:44:54.604Z,97297.52
2019-06-26T06:47:25.626Z,97301.78
2019-06-26T06:49:56.655Z,97301.15
2019-06-26T06:52:27.760Z,97302.99
2019-06-26T06:54:58.754Z,97296.22
2019-06-26T06:57:29.766Z,97295.91
2019-06-26T07:00:00.929Z,97298.53
2019-06-26T07:02:33.730Z,97300.37
2019-06-26T07:05:05.037Z,97305.33
2019-06-26T07:07:36.168Z,97310.07
2019-06-26T07:10:07.599Z,97308.84
2019-06-26T07:12:38.683Z,97310.97
2019-06-26T07:15:11.399Z,97310.91
2019-06-26T07:17:43.454Z,97321.27
2019-06-26T07:20:14.687Z,97318.41
2019-06-26T07:22:45.705Z,97319.23
2019-06-26T07:25:16.839Z,97317.70
2019-06-26T07:27:47.845Z,97320.39
2019-06-26T07:30:19.332Z,97322.44
2019-06-26T07:32:51.553Z,97324.81
2019-06-26T07:35:22.621Z,97324.48
2019-06-26T07:37:54.106Z,97335.01
2019-06-26T07:40:25.823Z,97331.23
2019-06-26T07:42:57.106Z,97336.56
2019-06-26T07:45:28.204Z,97339.22
2019-06-26T07:47:59.277Z,97334.98
2019-06-26T07:50:32.539Z,97343.38
2019-06-26T07:53:04.035Z,97345.95
2019-06-26T07:55:35.037Z,97346.14
2019-06-26T07:58:06.144Z,97349.13
2019-06-26T08:00:38.291Z,97353.39
2019-06-26T08:03:09.322Z,97351.08
2019-06-26T08:05:42.821Z,97353.42
2019-06-26T08:08:14.819Z,97355.87
2019-06-26T08:10:47.211Z,97357.91
2019-06-26T08:13:18.282Z,97355.39
2019-06-26T08:15:49.635Z,97358.61
2019-06-26T08:18:20.630Z,97359.72
2019-06-26T08:21:07.467Z,97355.78
2019-06-26T08:23:24.355Z,97361.44
2019-06-26T08:25:55.426Z,97358.27
2019-06-26T08:28:26.498Z,97362.03
2019-06-26T08:30:57.482Z,97363.33
2019-06-26T08:33:28.584Z,97371.27
2019-06-26T08:35:59.595Z,97365.74
2019-06-26T08:38:30.641Z,97370.16
2019-06-26T08:41:01.632Z,97366.26
2019-06-26T08:43:32.719Z,97363.25
2019-06-26T08:46:03.724Z,97367.09
2019-06-26T08:48:39.888Z,97368.61
2019-06-26T08:51:07.419Z,97369.62
2019-06-26T08:53:38.411Z,97368.09
2019-06-26T08:56:09.431Z,97369.09
2019-06-26T08:58:40.496Z,97372.20
2019-06-26T09:01:11.495Z,97369.61
2019-06-26T09:03:42.502Z,97373.52
2019-06-26T09:06:13.513Z,97375.05
2019-06-26T09:08:44.530Z,97373.17
2019-06-26T09:11:15.535Z,97375.11
2019-06-26T09:13:46.542Z,97368.55
2019-06-26T09:16:18.522Z,97371.63
2019-06-26T09:18:49.627Z,97371.95
2019-06-26T09:21:20.615Z,97368.08
2019-06-26T09:23:52.307Z,97370.24
2019-06-26T09:26:23.298Z,97365.58
2019-06-26T09:28:54.385Z,97370.75
2019-06-26T09:31:25.466Z,97372.02
2019-06-26T09:33:57.870Z,97373.91
2019-06-26T09:36:29.053Z,97381.41
2019-06-26T09:39:00.108Z,97384.14
2019-06-26T09:41:31.168Z,97381.24
2019-06-26T09:44:02.188Z,97383.95
2019-06-26T09:46:33.287Z,97382.09
2019-06-26T09:49:05.564Z,97382.95
2019-06-26T09:51:36.734Z,97384.51
2019-06-26T09:54:07.737Z,97387.23
2019-06-26T09:56:39.012Z,97382.78
2019-06-26T09:59:10.011Z,97384.01
2019-06-26T10:01:41.014Z,97381.36
2019-06-26T10:04:12.104Z,97385.44
2019-06-26T10:06:43.125Z,97380.38
2019-06-26T10:09:14.229Z,97372.86
2019-06-26T10:11:45.358Z,97379.74
2019-06-26T10:14:16.377Z,97381.47
2019-06-26T10:16:47.431Z,97373.47
2019-06-26T10:19:18.453Z,97375.94
2019-06-26T10:21:49.448Z,97374.31
2019-06-26T10:24:20.476Z,97374.99
2019-06-26T10:26:51.530Z,97361.01
2019-06-26T10:29:22.712Z,97369.70
2019-06-26T10:31:54.480Z,97363.59
2019-06-26T10:34:25.617Z,97370.64
2019-06-26T10:36:58.033Z,97373.21
2019-06-26T10:39:29.055Z,97370.09
2019-06-26T10:42:00.149Z,97375.83
2019-06-26T10:44:31.184Z,97371.08
2019-06-26T10:47:02.216Z,97368.44
2019-06-26T10:49:33.256Z,97370.34
2019-06-26T10:52:04.404Z,97373.28
2019-06-26T10:54:35.525Z,97369.72
2019-06-26T10:57:06.597Z,97365.27
2019-06-26T10:59:37.611Z,97362.71
2019-06-26T11:02:09.394Z,97361.03
2019-06-26T11:04:40.465Z,97376.98
2019-06-26T11:07:11.459Z,97370.53
2019-06-26T11:09:42.573Z,97370.55
2019-06-26T11:12:13.623Z,97361.33
2019-06-26T11:14:44.701Z,97356.13
2019-06-26T11:17:16.769Z,97361.12
2019-06-26T11:19:47.882Z,97360.50
2019-06-26T11:22:18.905Z,97361.95
2019-06-26T11:24:50.083Z,97359.69
2019-06-26T11:27:21.321Z,97364.51
2019-06-26T11:29:52.451Z,97356.59
2019-06-26T11:32:23.535Z,97358.37
2019-06-26T11:34:54.677Z,97355.34
2019-06-26T11:37:25.691Z,97357.98
2019-06-26T11:39:57.676Z,97356.63
2019-06-26T11:42:32.612Z,97358.33
2019-06-26T11:45:02.459Z,97360.89
2019-06-26T11:47:33.456Z,97359.38
2019-06-26T11:50:05.332Z,97357.63
2019-06-26T11:52:36.340Z,97362.02
2019-06-26T11:55:09.150Z,97359.30
2019-06-26T11:57:40.207Z,97356.42
2019-06-26T12:00:12.156Z,97352.35
2019-06-26T12:02:43.308Z,97349.72
2019-06-26T12:05:15.382Z,97348.27
2019-06-26T12:07:46.883Z,97340.46
2019-06-26T12:10:18.884Z,97336.48
2019-06-26T12:12:49.885Z,97339.60
2019-06-26T12:15:22.633Z,97333.91
2019-06-26T12:17:55.043Z,97333.48
2019-06-26T12:20:26.444Z,97335.23
2019-06-26T12:22:57.555Z,97340.39
2019-06-26T12:25:28.559Z,97334.14
2019-06-26T12:27:59.634Z,97331.98
2019-06-26T12:30:30.939Z,97327.90
2019-06-26T12:33:03.676Z,97335.09
2019-06-26T12:35:34.664Z,97329.23
2019-06-26T12:38:06.537Z,97326.28
2019-06-26T12:40:37.543Z,97324.22
2019-06-26T12:43:08.536Z,97324.30
2019-06-26T12:45:39.642Z,97319.17
2019-06-26T12:48:10.776Z,97324.77
2019-06-26T12:50:41.892Z,97315.98
2019-06-26T12:53:12.888Z,97319.02
2019-06-26T12:55:43.879Z,97315.83
2019-06-26T12:58:19.477Z,97307.03
2019-06-26T13:00:47.968Z,97312.77
2019-06-26T13:03:18.965Z,97307.03
2019-06-26T13:05:50.185Z,97310.24
2019-06-26T13:08:21.177Z,97302.80
2019-06-26T13:10:52.248Z,97298.02
2019-06-26T13:13:23.384Z,97299.31
2019-06-26T13:15:55.049Z,97301.30
2019-06-26T13:18:26.052Z,97305.53
2019-06-26T13:20:57.175Z,97294.83
2019-06-26T13:23:28.222Z,97296.98
2019-06-26T13:25:59.220Z,97298.67
2019-06-26T13:28:30.264Z,97303.30
2019-06-26T13:31:01.297Z,97300.48
2019-06-26T13:33:32.419Z,97296.85
2019-06-26T13:36:03.409Z,97294.59
2019-06-26T13:38:34.440Z,97296.50
2019-06-26T13:41:05.461Z,97299.66
2019-06-26T13:43:36.474Z,97294.03
2019-06-26T13:46:07.512Z,97297.05
2019-06-26T13:48:38.502Z,97292.77
2019-06-26T13:51:10.634Z,97292.45
2019-06-26T13:53:42.031Z,97293.53
2019-06-26T13:56:13.082Z,97292.11
2019-06-26T13:58:44.107Z,97287.80
2019-06-26T14:01:15.120Z,97287.70
2019-06-26T14:03:46.121Z,97287.70
2019-06-26T14:06:17.752Z,97285.04
2019-06-26T14:08:48.831Z,97279.48
2019-06-26T14:11:19.869Z,97284.97
2019-06-26T14:13:50.895Z,97274.98
2019-06-26T14:16:21.956Z,97273.39
2019-06-26T14:18:53.021Z,97274.17
2019-06-26T14:21:25.991Z,97272.09
2019-06-26T14:23:56.805Z,97271.62
2019-06-26T14:26:27.880Z,97271.62
2019-06-26T14:28:58.911Z,97269.31
2019-06-26T14:31:29.930Z,97271.95
2019-06-26T14:34:01.031Z,97268.27
2019-06-26T14:36:32.053Z,97269.80
2019-06-26T14:39:03.369Z,97263.31
2019-06-26T14:41:39.104Z,97262.84
2019-06-26T14:44:08.945Z,97260.34
2019-06-26T14:46:39.945Z,97263.16
2019-06-26T14:49:10.946Z,97258.77
2019-06-26T14:51:47.446Z,97258.27
2019-06-26T14:54:15.954Z,97255.32
2019-06-26T14:56:46.971Z,97253.34
2019-06-26T14:59:18.111Z,97251.48
2019-06-26T15:01:49.750Z,97252.45
2019-06-26T15:04:20.771Z,97252.13
2019-06-26T15:06:51.775Z,97245.81
2019-06-26T15:09:22.854Z,97246.44
2019-06-26T15:11:53.870Z,97247.41
2019-06-26T15:14:24.977Z,97254.11
2019-06-26T15:16:56.111Z,97243.52
2019-06-26T17:02:32.964Z,97204.67
2019-06-26T17:05:04.505Z,97200.03
2019-06-26T17:07:35.624Z,97203.05
2019-06-26T17:10:07.569Z,97196.22
2019-06-26T17:12:38.661Z,97204.83
2019-06-26T17:15:10.951Z,97205.72
2019-06-26T17:17:42.000Z,97206.66
2019-06-26T17:20:14.003Z,97206.42
2019-06-26T17:22:45.004Z,97206.81
2019-06-26T17:25:16.279Z,97197.20
2019-06-26T17:27:47.292Z,97206.47
2019-06-26T17:30:18.483Z,97200.11
2019-06-26T17:32:49.488Z,97204.88
2019-06-26T17:35:20.551Z,97202.23
2019-06-26T17:37:51.647Z,97203.75
2019-06-26T17:40:23.250Z,97192.86
2019-06-26T17:43:08.212Z,97199.45
2019-06-26T17:45:28.091Z,97196.94
2019-06-26T17:47:59.090Z,97197.90
2019-06-26T17:50:30.128Z,97190.54
2019-06-26T17:53:01.208Z,97190.45
2019-06-26T17:55:32.292Z,97192.86
2019-06-26T17:58:03.295Z,97192.55
2019-06-26T18:00:36.559Z,97187.58
2019-06-26T18:03:07.619Z,97195.22
2019-06-26T18:05:38.621Z,97189.86
2019-06-26T18:08:09.638Z,97193.43
2019-06-26T18:10:40.654Z,97190.31
2019-06-26T18:13:11.685Z,97190.70
2019-06-26T18:15:42.696Z,97184.38
2019-06-26T18:18:13.711Z,97184.98
2019-06-26T18:20:44.854Z,97191.70
2019-06-26T18:23:15.893Z,97189.44
2019-06-26T18:25:53.899Z,97190.90
2019-06-26T18:28:19.661Z,97187.99
2019-06-26T18:30:50.697Z,97189.96
2019-06-26T18:33:21.767Z,97189.25
2019-06-26T18:35:52.768Z,97187.09
2019-06-26T18:38:23.786Z,97186.11
2019-06-26T18:40:55.919Z,97185.36
2019-06-26T18:43:27.192Z,97181.67
2019-06-26T18:45:59.575Z,97186.69
2019-06-26T18:48:30.624Z,97184.02
2019-06-26T18:51:01.725Z,97187.66
2019-06-26T18:53:32.915Z,97185.06
2019-06-26T18:56:03.998Z,97180.52
2019-06-26T18:58:35.078Z,97182.01
2019-06-26T19:01:06.647Z,97185.56
2019-06-26T19:03:37.663Z,97178.86
2019-06-26T19:06:08.683Z,97180.04
2019-06-26T19:08:39.688Z,97179.56
2019-06-26T19:11:10.713Z,97179.39
2019-06-26T19:13:41.785Z,97180.30
2019-06-26T19:16:12.889Z,97184.19
2019-06-26T19:18:43.993Z,97187.27
2019-06-26T19:21:15.274Z,97183.30
2019-06-26T19:23:46.436Z,97186.64
2019-06-26T19:26:17.480Z,97190.79
2019-06-26T19:28:48.498Z,97195.16
2019-06-26T19:31:19.505Z,97199.58
2019-06-26T19:33:50.569Z,97198.58
2019-06-26T19:36:24.156Z,97200.56
2019-06-26T19:38:54.390Z,97202.82
2019-06-26T19:41:25.468Z,97209.64
2019-06-26T19:43:56.482Z,97214.00
2019-06-26T19:46:27.742Z,97211.14
2019-06-26T19:48:58.837Z,97215.05
2019-06-26T19:51:30.719Z,97218.70
2019-06-26T19:54:01.685Z,97224.70
2019-06-26T19:56:32.692Z,97224.58
2019-06-26T19:59:03.778Z,97226.04
2019-06-26T20:01:34.813Z,97228.52
2019-06-26T20:04:05.931Z,97228.09
2019-06-26T20:06:36.942Z,97233.34
2019-06-26T20:09:08.304Z,97233.20
2019-06-26T20:11:39.392Z,97233.27
2019-06-26T20:14:10.417Z,97233.38
2019-06-26T20:16:41.484Z,97233.17
2019-06-26T20:19:12.513Z,97233.52
2019-06-26T20:21:43.594Z,97230.38
2019-06-26T20:24:15.962Z,97238.30
2019-06-26T20:26:47.057Z,97237.59
2019-06-26T20:29:18.056Z,97238.74
2019-06-26T20:31:49.155Z,97236.14
2019-06-26T20:36:50.939Z,97230.35
2019-06-26T20:39:21.953Z,97241.45
2019-06-26T20:41:52.952Z,97232.05
2019-06-26T20:44:24.094Z,97237.69
2019-06-26T20:46:56.258Z,97231.56
2019-06-26T20:49:27.370Z,97237.55
2019-06-26T20:51:58.448Z,97239.82
2019-06-26T20:54:29.453Z,97242.91
2019-06-26T20:57:01.264Z,97238.99
2019-06-26T20:59:32.283Z,97236.09
2019-06-26T21:02:03.281Z,97242.06
2019-06-26T21:04:34.387Z,97248.58
2019-06-26T21:07:05.464Z,97243.79
2019-06-26T21:09:37.471Z,97244.86
2019-06-26T21:12:08.481Z,97240.32
2019-06-26T21:14:39.496Z,97247.36
2019-06-26T21:17:10.491Z,97239.30
2019-06-26T21:19:41.587Z,97245.27
2019-06-26T21:22:12.605Z,97244.45
2019-06-26T21:24:43.624Z,97240.45
2019-06-26T21:27:15.036Z,97244.54
2019-06-26T21:29:46.029Z,97235.95
2019-06-26T21:32:17.037Z,97242.17
2019-06-26T21:34:48.046Z,97238.97
2019-06-26T21:37:19.038Z,97236.56
2019-06-26T21:39:50.042Z,97237.67
2019-06-26T21:42:21.052Z,97238.77
2019-06-26T21:44:52.118Z,97240.16
2019-06-26T21:47:23.232Z,97242.30
2019-06-26T21:49:54.256Z,97233.95
2019-06-26T21:52:25.572Z,97236.98
2019-06-26T21:54:56.639Z,97235.70
2019-06-26T21:57:45.659Z,97242.70
2019-06-26T22:00:36.583Z,97236.67
2019-06-26T22:03:25.636Z,97238.66
2019-06-26T22:05:58.291Z,97237.39
2019-06-26T22:08:33.962Z,97241.16
2019-06-26T22:11:06.665Z,97246.83
2019-06-26T22:13:38.954Z,97244.70
2019-06-26T22:16:10.019Z,97251.19
2019-06-26T22:18:41.118Z,97252.82
2019-06-26T22:21:12.134Z,97249.31
2019-06-26T22:23:43.225Z,97244.77
2019-06-26T22:26:14.579Z,97247.18
2019-06-26T22:28:45.853Z,97252.36
2019-06-26T22:31:16.957Z,97249.37
2019-06-26T22:33:48.029Z,97253.92
2019-06-26T22:36:19.048Z,97254.20
2019-06-26T22:38:50.052Z,97248.56
2019-06-26T22:41:21.175Z,97251.01
2019-06-26T22:43:52.242Z,97245.33
2019-06-26T22:46:23.644Z,97243.20
2019-06-26T22:48:54.999Z,97240.54
2019-06-26T22:51:26.025Z,97240.04
2019-06-26T22:53:57.183Z,97237.66
2019-06-26T22:56:28.319Z,97234.72
2019-06-26T22:58:59.519Z,97236.88
2019-06-26T23:01:31.558Z,97232.59
2019-06-26T23:04:02.590Z,97236.09
2019-06-26T23:06:37.209Z,97238.26
2019-06-26T23:09:07.461Z,97242.30
2019-06-26T23:11:39.627Z,97247.44
2019-06-26T23:14:10.638Z,97246.12
2019-06-26T23:16:41.664Z,97248.26
2019-06-26T23:19:15.029Z,97250.95
2019-06-26T23:21:46.171Z,97241.83
2019-06-26T23:24:17.186Z,97244.55
2019-06-26T23:26:48.189Z,97239.45
2019-06-26T23:29:19.198Z,97234.13
2019-06-26T23:31:50.210Z,97236.56
2019-06-26T23:34:21.285Z,97238.20
2019-06-26T23:36:52.388Z,97242.80
2019-06-26T23:39:23.406Z,97243.36
2019-06-26T23:41:54.420Z,97239.88
2019-06-26T23:44:25.439Z,97235.59
2019-06-26T23:46:56.950Z,97238.28
2019-06-26T23:49:27.955Z,97243.44
2019-06-26T23:51:58.989Z,97234.86
2019-06-26T23:54:29.962Z,97230.81
2019-06-26T23:57:01.520Z,97229.47
2019-06-26T23:59:32.517Z,97231.41
